sensor_id;sensor_type;location;lat;lon;timestamp;temperature;humidity
21298;DHT22;10808;48.010;11.326;2023-07-31T00:00:37;18.70;99.90
21298;DHT22;10808;48.010;11.326;2023-07-31T00:03:03;18.70;99.90
21298;DHT22;10808;48.010;11.326;2023-07-31T00:05:29;18.70;99.90
21298;DHT22;10808;48.010;11.326;2023-07-31T00:07:55;18.60;99.90
21298;DHT22;10808;48.010;11.326;2023-07-31T00:10:21;18.50;99.90
21298;DHT22;10808;48.010;11.326;2023-07-31T00:12:47;18.50;99.90
21298;DHT22;10808;48.010;11.326;2023-07-31T00:15:14;18.50;99.90
21298;DHT22;10808;48.010;11.326;2023-07-31T00:17:40;18.40;99.90
21298;DHT22;10808;48.010;11.326;2023-07-31T00:20:06;18.30;99.90
21298;DHT22;10808;48.010;11.326;2023-07-31T00:22:32;18.30;99.90
21298;DHT22;10808;48.010;11.326;2023-07-31T00:24:58;18.20;99.90
21298;DHT22;10808;48.010;11.326;2023-07-31T00:27:25;18.20;99.90
21298;DHT22;10808;48.010;11.326;2023-07-31T00:29:51;18.20;99.90
21298;DHT22;10808;48.010;11.326;2023-07-31T00:32:17;18.20;99.90
21298;DHT22;10808;48.010;11.326;2023-07-31T00:34:43;18.10;99.90
21298;DHT22;10808;48.010;11.326;2023-07-31T00:37:09;18.10;99.90
21298;DHT22;10808;48.010;11.326;2023-07-31T00:39:35;18.00;99.90
21298;DHT22;10808;48.010;11.326;2023-07-31T00:42:02;18.00;99.90
21298;DHT22;10808;48.010;11.326;2023-07-31T00:44:28;18.00;99.90
21298;DHT22;10808;48.010;11.326;2023-07-31T00:46:56;17.90;99.90
21298;DHT22;10808;48.010;11.326;2023-07-31T00:49:22;17.80;99.90
21298;DHT22;10808;48.010;11.326;2023-07-31T00:51:48;17.80;99.90
21298;DHT22;10808;48.010;11.326;2023-07-31T00:54:15;17.70;99.90
21298;DHT22;10808;48.010;11.326;2023-07-31T00:56:41;17.70;99.90
21298;DHT22;10808;48.010;11.326;2023-07-31T00:59:10;17.70;99.90
21298;DHT22;10808;48.010;11.326;2023-07-31T01:01:36;17.60;99.90
21298;DHT22;10808;48.010;11.326;2023-07-31T01:04:02;17.60;99.90
21298;DHT22;10808;48.010;11.326;2023-07-31T01:09:20;17.50;99.90
21298;DHT22;10808;48.010;11.326;2023-07-31T01:11:57;17.60;99.90
21298;DHT22;10808;48.010;11.326;2023-07-31T01:14:25;17.60;99.90
21298;DHT22;10808;48.010;11.326;2023-07-31T01:16:51;17.60;99.90
21298;DHT22;10808;48.010;11.326;2023-07-31T01:19:23;17.60;99.90
21298;DHT22;10808;48.010;11.326;2023-07-31T01:22:23;17.50;99.90
21298;DHT22;10808;48.010;11.326;2023-07-31T01:25:12;17.60;99.90
21298;DHT22;10808;48.010;11.326;2023-07-31T01:30:33;17.60;99.90
21298;DHT22;10808;48.010;11.326;2023-07-31T01:33:02;17.60;99.90
21298;DHT22;10808;48.010;11.326;2023-07-31T01:35:34;17.60;99.90
21298;DHT22;10808;48.010;11.326;2023-07-31T01:38:00;17.60;99.90
21298;DHT22;10808;48.010;11.326;2023-07-31T01:40:26;17.60;99.90
21298;DHT22;10808;48.010;11.326;2023-07-31T01:42:52;17.60;99.90
21298;DHT22;10808;48.010;11.326;2023-07-31T01:45:18;17.60;99.90
21298;DHT22;10808;48.010;11.326;2023-07-31T01:47:44;17.60;99.90
21298;DHT22;10808;48.010;11.326;2023-07-31T01:50:11;17.60;99.90
21298;DHT22;10808;48.010;11.326;2023-07-31T01:52:37;17.60;99.90
21298;DHT22;10808;48.010;11.326;2023-07-31T01:55:03;17.60;99.90
21298;DHT22;10808;48.010;11.326;2023-07-31T01:57:29;17.70;99.90
21298;DHT22;10808;48.010;11.326;2023-07-31T01:59:55;17.70;99.90
21298;DHT22;10808;48.010;11.326;2023-07-31T02:02:22;17.70;99.90
21298;DHT22;10808;48.010;11.326;2023-07-31T02:04:49;17.70;99.90
21298;DHT22;10808;48.010;11.326;2023-07-31T02:07:15;17.70;99.90
21298;DHT22;10808;48.010;11.326;2023-07-31T02:09:41;17.70;99.90
21298;DHT22;10808;48.010;11.326;2023-07-31T02:12:07;17.70;99.90
21298;DHT22;10808;48.010;11.326;2023-07-31T02:14:36;17.70;99.90
21298;DHT22;10808;48.010;11.326;2023-07-31T02:17:02;17.70;99.90
21298;DHT22;10808;48.010;11.326;2023-07-31T02:19:28;17.70;99.90
21298;DHT22;10808;48.010;11.326;2023-07-31T02:21:54;17.60;99.90
21298;DHT22;10808;48.010;11.326;2023-07-31T02:24:20;17.60;99.90
21298;DHT22;10808;48.010;11.326;2023-07-31T02:26:46;17.60;99.90
21298;DHT22;10808;48.010;11.326;2023-07-31T02:29:12;17.60;99.90
21298;DHT22;10808;48.010;11.326;2023-07-31T02:31:39;17.60;99.90
21298;DHT22;10808;48.010;11.326;2023-07-31T02:34:05;17.60;99.90
21298;DHT22;10808;48.010;11.326;2023-07-31T02:36:31;17.60;99.90
21298;DHT22;10808;48.010;11.326;2023-07-31T02:38:57;17.60;99.90
21298;DHT22;10808;48.010;11.326;2023-07-31T02:41:23;17.60;99.90
21298;DHT22;10808;48.010;11.326;2023-07-31T02:43:49;17.60;99.90
21298;DHT22;10808;48.010;11.326;2023-07-31T02:46:15;17.60;99.90
21298;DHT22;10808;48.010;11.326;2023-07-31T02:48:41;17.60;99.90
21298;DHT22;10808;48.010;11.326;2023-07-31T02:51:07;17.60;99.90
21298;DHT22;10808;48.010;11.326;2023-07-31T02:53:33;17.60;99.90
21298;DHT22;10808;48.010;11.326;2023-07-31T02:55:59;17.60;99.90
21298;DHT22;10808;48.010;11.326;2023-07-31T02:58:25;17.60;99.90
21298;DHT22;10808;48.010;11.326;2023-07-31T03:00:51;17.60;99.90
21298;DHT22;10808;48.010;11.326;2023-07-31T03:03:17;17.50;99.90
21298;DHT22;10808;48.010;11.326;2023-07-31T03:05:43;17.50;99.90
21298;DHT22;10808;48.010;11.326;2023-07-31T03:08:09;17.50;99.90
21298;DHT22;10808;48.010;11.326;2023-07-31T03:10:35;17.40;99.90
21298;DHT22;10808;48.010;11.326;2023-07-31T03:13:01;17.40;99.90
21298;DHT22;10808;48.010;11.326;2023-07-31T03:15:27;17.40;99.90
21298;DHT22;10808;48.010;11.326;2023-07-31T03:17:53;17.40;99.90
21298;DHT22;10808;48.010;11.326;2023-07-31T03:20:19;17.30;99.90
21298;DHT22;10808;48.010;11.326;2023-07-31T03:22:45;17.30;99.90
21298;DHT22;10808;48.010;11.326;2023-07-31T03:25:11;17.20;99.90
21298;DHT22;10808;48.010;11.326;2023-07-31T03:27:38;17.20;99.90
21298;DHT22;10808;48.010;11.326;2023-07-31T03:30:04;17.10;99.90
21298;DHT22;10808;48.010;11.326;2023-07-31T03:32:31;17.10;99.90
21298;DHT22;10808;48.010;11.326;2023-07-31T03:34:57;17.10;99.90
21298;DHT22;10808;48.010;11.326;2023-07-31T03:37:23;17.00;99.90
21298;DHT22;10808;48.010;11.326;2023-07-31T03:39:49;17.00;99.90
21298;DHT22;10808;48.010;11.326;2023-07-31T03:42:15;17.00;99.90
21298;DHT22;10808;48.010;11.326;2023-07-31T03:44:41;17.00;99.90
21298;DHT22;10808;48.010;11.326;2023-07-31T03:47:07;17.00;99.90
21298;DHT22;10808;48.010;11.326;2023-07-31T03:49:33;16.90;99.90
21298;DHT22;10808;48.010;11.326;2023-07-31T03:51:59;16.90;99.90
21298;DHT22;10808;48.010;11.326;2023-07-31T03:54:25;16.90;99.90
21298;DHT22;10808;48.010;11.326;2023-07-31T03:56:51;16.90;99.90
21298;DHT22;10808;48.010;11.326;2023-07-31T03:59:17;16.90;99.90
21298;DHT22;10808;48.010;11.326;2023-07-31T04:01:43;16.90;99.90
21298;DHT22;10808;48.010;11.326;2023-07-31T04:04:09;16.90;99.90
21298;DHT22;10808;48.010;11.326;2023-07-31T04:06:35;16.90;99.90
21298;DHT22;10808;48.010;11.326;2023-07-31T04:09:02;17.00;99.90
21298;DHT22;10808;48.010;11.326;2023-07-31T04:11:28;17.00;99.90
21298;DHT22;10808;48.010;11.326;2023-07-31T04:13:54;17.00;99.90
21298;DHT22;10808;48.010;11.326;2023-07-31T04:16:20;17.10;99.90
21298;DHT22;10808;48.010;11.326;2023-07-31T04:18:46;17.10;99.90
21298;DHT22;10808;48.010;11.326;2023-07-31T04:21:12;17.10;99.90
21298;DHT22;10808;48.010;11.326;2023-07-31T04:23:38;17.10;99.90
21298;DHT22;10808;48.010;11.326;2023-07-31T04:26:04;17.10;99.90
21298;DHT22;10808;48.010;11.326;2023-07-31T04:28:30;17.10;99.90
21298;DHT22;10808;48.010;11.326;2023-07-31T04:30:57;17.10;99.90
21298;DHT22;10808;48.010;11.326;2023-07-31T04:33:24;17.10;99.90
21298;DHT22;10808;48.010;11.326;2023-07-31T04:35:53;17.10;99.90
21298;DHT22;10808;48.010;11.326;2023-07-31T04:38:20;17.20;99.90
21298;DHT22;10808;48.010;11.326;2023-07-31T04:40:47;17.20;99.90
21298;DHT22;10808;48.010;11.326;2023-07-31T04:43:13;17.20;99.90
21298;DHT22;10808;48.010;11.326;2023-07-31T04:45:44;17.20;99.90
21298;DHT22;10808;48.010;11.326;2023-07-31T04:48:11;17.30;99.90
21298;DHT22;10808;48.010;11.326;2023-07-31T04:50:37;17.30;99.90
21298;DHT22;10808;48.010;11.326;2023-07-31T04:53:03;17.30;99.90
21298;DHT22;10808;48.010;11.326;2023-07-31T04:55:29;17.30;99.90
21298;DHT22;10808;48.010;11.326;2023-07-31T04:57:55;17.30;99.90
21298;DHT22;10808;48.010;11.326;2023-07-31T05:00:21;17.40;99.90
21298;DHT22;10808;48.010;11.326;2023-07-31T05:02:47;17.50;99.90
21298;DHT22;10808;48.010;11.326;2023-07-31T05:05:13;17.50;99.90
21298;DHT22;10808;48.010;11.326;2023-07-31T05:07:39;17.60;99.90
21298;DHT22;10808;48.010;11.326;2023-07-31T05:10:06;17.60;99.90
21298;DHT22;10808;48.010;11.326;2023-07-31T05:12:32;17.60;99.90
21298;DHT22;10808;48.010;11.326;2023-07-31T05:14:58;17.60;99.90
21298;DHT22;10808;48.010;11.326;2023-07-31T05:17:24;17.60;99.90
21298;DHT22;10808;48.010;11.326;2023-07-31T05:19:50;17.70;99.90
21298;DHT22;10808;48.010;11.326;2023-07-31T05:22:16;17.80;99.90
21298;DHT22;10808;48.010;11.326;2023-07-31T05:24:42;17.80;99.90
21298;DHT22;10808;48.010;11.326;2023-07-31T05:27:08;17.90;99.90
21298;DHT22;10808;48.010;11.326;2023-07-31T05:29:35;18.00;99.90
21298;DHT22;10808;48.010;11.326;2023-07-31T05:32:01;18.10;99.90
21298;DHT22;10808;48.010;11.326;2023-07-31T05:34:27;18.10;99.90
21298;DHT22;10808;48.010;11.326;2023-07-31T05:36:53;18.10;99.90
21298;DHT22;10808;48.010;11.326;2023-07-31T05:39:19;18.20;99.90
21298;DHT22;10808;48.010;11.326;2023-07-31T05:41:46;18.30;99.90
21298;DHT22;10808;48.010;11.326;2023-07-31T05:44:13;18.30;99.90
21298;DHT22;10808;48.010;11.326;2023-07-31T05:46:39;18.30;99.90
21298;DHT22;10808;48.010;11.326;2023-07-31T05:49:05;18.50;99.90
21298;DHT22;10808;48.010;11.326;2023-07-31T05:51:31;18.50;99.90
21298;DHT22;10808;48.010;11.326;2023-07-31T05:54:00;18.60;99.90
21298;DHT22;10808;48.010;11.326;2023-07-31T05:56:26;18.70;99.90
21298;DHT22;10808;48.010;11.326;2023-07-31T05:58:53;18.80;99.90
21298;DHT22;10808;48.010;11.326;2023-07-31T06:01:19;18.90;99.90
21298;DHT22;10808;48.010;11.326;2023-07-31T06:03:47;19.00;99.90
21298;DHT22;10808;48.010;11.326;2023-07-31T06:06:13;19.00;99.90
21298;DHT22;10808;48.010;11.326;2023-07-31T06:08:39;19.10;99.90
21298;DHT22;10808;48.010;11.326;2023-07-31T06:11:06;19.30;99.90
21298;DHT22;10808;48.010;11.326;2023-07-31T06:13:33;19.30;99.90
21298;DHT22;10808;48.010;11.326;2023-07-31T06:15:59;19.30;99.90
21298;DHT22;10808;48.010;11.326;2023-07-31T06:18:25;19.40;99.90
21298;DHT22;10808;48.010;11.326;2023-07-31T06:20:51;19.30;99.90
21298;DHT22;10808;48.010;11.326;2023-07-31T06:23:19;19.40;99.90
21298;DHT22;10808;48.010;11.326;2023-07-31T06:25:46;19.40;99.90
21298;DHT22;10808;48.010;11.326;2023-07-31T06:28:12;19.40;99.90
21298;DHT22;10808;48.010;11.326;2023-07-31T06:30:38;19.50;99.90
21298;DHT22;10808;48.010;11.326;2023-07-31T06:33:04;19.50;99.90
21298;DHT22;10808;48.010;11.326;2023-07-31T06:35:30;19.50;99.90
21298;DHT22;10808;48.010;11.326;2023-07-31T06:37:56;19.60;99.90
21298;DHT22;10808;48.010;11.326;2023-07-31T06:40:22;19.60;99.90
21298;DHT22;10808;48.010;11.326;2023-07-31T06:42:48;19.70;99.90
21298;DHT22;10808;48.010;11.326;2023-07-31T06:45:15;19.80;99.90
21298;DHT22;10808;48.010;11.326;2023-07-31T06:47:41;19.90;99.90
21298;DHT22;10808;48.010;11.326;2023-07-31T06:50:08;20.00;99.90
21298;DHT22;10808;48.010;11.326;2023-07-31T06:52:34;19.90;99.90
21298;DHT22;10808;48.010;11.326;2023-07-31T06:55:04;19.90;99.90
21298;DHT22;10808;48.010;11.326;2023-07-31T06:57:30;19.80;99.90
21298;DHT22;10808;48.010;11.326;2023-07-31T06:59:56;19.80;99.90
21298;DHT22;10808;48.010;11.326;2023-07-31T07:02:22;19.90;99.90
21298;DHT22;10808;48.010;11.326;2023-07-31T07:04:49;19.90;99.90
21298;DHT22;10808;48.010;11.326;2023-07-31T07:07:15;19.90;99.90
21298;DHT22;10808;48.010;11.326;2023-07-31T07:09:41;20.00;99.90
21298;DHT22;10808;48.010;11.326;2023-07-31T07:12:07;20.10;99.90
21298;DHT22;10808;48.010;11.326;2023-07-31T07:14:34;20.20;99.90
21298;DHT22;10808;48.010;11.326;2023-07-31T07:17:00;20.40;99.90
21298;DHT22;10808;48.010;11.326;2023-07-31T07:19:26;20.50;99.90
21298;DHT22;10808;48.010;11.326;2023-07-31T07:21:52;20.50;99.90
21298;DHT22;10808;48.010;11.326;2023-07-31T07:24:18;20.60;99.90
21298;DHT22;10808;48.010;11.326;2023-07-31T07:26:45;20.70;99.90
21298;DHT22;10808;48.010;11.326;2023-07-31T07:29:11;20.70;99.90
21298;DHT22;10808;48.010;11.326;2023-07-31T07:31:37;20.90;99.90
21298;DHT22;10808;48.010;11.326;2023-07-31T07:34:03;21.10;99.90
21298;DHT22;10808;48.010;11.326;2023-07-31T07:36:29;21.30;99.80
21298;DHT22;10808;48.010;11.326;2023-07-31T07:38:55;21.50;99.70
21298;DHT22;10808;48.010;11.326;2023-07-31T07:41:22;21.70;99.30
21298;DHT22;10808;48.010;11.326;2023-07-31T07:43:48;21.90;98.90
21298;DHT22;10808;48.010;11.326;2023-07-31T07:46:14;22.00;98.60
21298;DHT22;10808;48.010;11.326;2023-07-31T07:48:40;22.30;99.00
21298;DHT22;10808;48.010;11.326;2023-07-31T07:51:06;22.40;97.90
21298;DHT22;10808;48.010;11.326;2023-07-31T07:53:32;22.50;97.30
21298;DHT22;10808;48.010;11.326;2023-07-31T07:55:58;22.60;97.50
21298;DHT22;10808;48.010;11.326;2023-07-31T07:58:24;22.90;97.70
21298;DHT22;10808;48.010;11.326;2023-07-31T08:00:53;23.10;97.00
21298;DHT22;10808;48.010;11.326;2023-07-31T08:03:19;23.20;96.60
21298;DHT22;10808;48.010;11.326;2023-07-31T08:05:45;23.50;96.80
21298;DHT22;10808;48.010;11.326;2023-07-31T08:08:16;23.90;96.60
21298;DHT22;10808;48.010;11.326;2023-07-31T08:10:43;24.20;95.50
21298;DHT22;10808;48.010;11.326;2023-07-31T08:13:10;24.30;95.40
21298;DHT22;10808;48.010;11.326;2023-07-31T08:15:36;24.40;95.10
21298;DHT22;10808;48.010;11.326;2023-07-31T08:18:03;24.70;94.80
21298;DHT22;10808;48.010;11.326;2023-07-31T08:20:29;24.70;94.50
21298;DHT22;10808;48.010;11.326;2023-07-31T08:22:55;24.70;94.80
21298;DHT22;10808;48.010;11.326;2023-07-31T08:25:21;24.70;94.40
21298;DHT22;10808;48.010;11.326;2023-07-31T08:27:47;24.50;94.10
21298;DHT22;10808;48.010;11.326;2023-07-31T08:30:13;24.40;94.20
21298;DHT22;10808;48.010;11.326;2023-07-31T08:32:39;24.20;94.20
21298;DHT22;10808;48.010;11.326;2023-07-31T08:35:05;24.10;94.90
21298;DHT22;10808;48.010;11.326;2023-07-31T08:37:31;24.20;94.80
21298;DHT22;10808;48.010;11.326;2023-07-31T08:39:57;24.10;94.20
21298;DHT22;10808;48.010;11.326;2023-07-31T08:42:24;23.90;93.70
21298;DHT22;10808;48.010;11.326;2023-07-31T08:44:51;23.60;93.70
21298;DHT22;10808;48.010;11.326;2023-07-31T08:47:19;23.40;93.80
21298;DHT22;10808;48.010;11.326;2023-07-31T08:49:46;23.20;94.30
21298;DHT22;10808;48.010;11.326;2023-07-31T08:52:12;23.10;94.70
21298;DHT22;10808;48.010;11.326;2023-07-31T08:54:39;23.10;94.60
21298;DHT22;10808;48.010;11.326;2023-07-31T08:57:06;23.10;94.50
21298;DHT22;10808;48.010;11.326;2023-07-31T08:59:34;23.10;94.50
21298;DHT22;10808;48.010;11.326;2023-07-31T09:02:06;22.90;94.50
21298;DHT22;10808;48.010;11.326;2023-07-31T09:04:33;22.80;94.60
21298;DHT22;10808;48.010;11.326;2023-07-31T09:07:03;22.80;94.90
21298;DHT22;10808;48.010;11.326;2023-07-31T09:09:31;22.90;95.60
21298;DHT22;10808;48.010;11.326;2023-07-31T09:12:00;23.00;95.20
21298;DHT22;10808;48.010;11.326;2023-07-31T09:14:26;23.30;95.10
21298;DHT22;10808;48.010;11.326;2023-07-31T09:16:57;23.60;94.80
21298;DHT22;10808;48.010;11.326;2023-07-31T09:19:33;23.80;94.30
21298;DHT22;10808;48.010;11.326;2023-07-31T09:22:00;24.10;94.20
21298;DHT22;10808;48.010;11.326;2023-07-31T09:24:28;24.20;93.90
21298;DHT22;10808;48.010;11.326;2023-07-31T09:26:55;24.50;94.10
21298;DHT22;10808;48.010;11.326;2023-07-31T09:29:28;24.50;93.10
21298;DHT22;10808;48.010;11.326;2023-07-31T09:31:55;24.40;93.20
21298;DHT22;10808;48.010;11.326;2023-07-31T09:34:37;24.40;93.30
21298;DHT22;10808;48.010;11.326;2023-07-31T09:37:04;24.70;93.20
21298;DHT22;10808;48.010;11.326;2023-07-31T09:39:31;24.90;93.30
21298;DHT22;10808;48.010;11.326;2023-07-31T09:41:57;25.00;92.40
21298;DHT22;10808;48.010;11.326;2023-07-31T09:44:39;25.00;92.20
21298;DHT22;10808;48.010;11.326;2023-07-31T09:47:06;25.10;92.20
21298;DHT22;10808;48.010;11.326;2023-07-31T09:49:46;25.20;92.20
21298;DHT22;10808;48.010;11.326;2023-07-31T09:52:12;25.30;91.90
21298;DHT22;10808;48.010;11.326;2023-07-31T09:54:39;25.40;91.60
21298;DHT22;10808;48.010;11.326;2023-07-31T09:57:05;25.50;91.80
21298;DHT22;10808;48.010;11.326;2023-07-31T09:59:32;25.70;91.90
21298;DHT22;10808;48.010;11.326;2023-07-31T10:01:58;25.90;91.30
21298;DHT22;10808;48.010;11.326;2023-07-31T10:04:27;26.10;90.90
21298;DHT22;10808;48.010;11.326;2023-07-31T10:06:53;26.20;90.70
21298;DHT22;10808;48.010;11.326;2023-07-31T10:09:21;26.30;90.60
21298;DHT22;10808;48.010;11.326;2023-07-31T10:11:56;26.40;90.50
21298;DHT22;10808;48.010;11.326;2023-07-31T10:14:26;26.40;90.20
21298;DHT22;10808;48.010;11.326;2023-07-31T10:16:53;26.40;89.80
21298;DHT22;10808;48.010;11.326;2023-07-31T10:19:20;26.50;89.50
21298;DHT22;10808;48.010;11.326;2023-07-31T10:21:48;26.50;88.30
21298;DHT22;10808;48.010;11.326;2023-07-31T10:24:15;26.60;89.70
21298;DHT22;10808;48.010;11.326;2023-07-31T10:26:41;26.90;88.80
21298;DHT22;10808;48.010;11.326;2023-07-31T10:29:11;27.00;89.30
21298;DHT22;10808;48.010;11.326;2023-07-31T10:31:38;27.20;87.40
21298;DHT22;10808;48.010;11.326;2023-07-31T10:34:04;27.10;86.40
21298;DHT22;10808;48.010;11.326;2023-07-31T10:36:30;27.10;85.30
21298;DHT22;10808;48.010;11.326;2023-07-31T10:38:56;27.10;86.40
21298;DHT22;10808;48.010;11.326;2023-07-31T10:41:32;27.00;85.00
21298;DHT22;10808;48.010;11.326;2023-07-31T10:44:02;26.80;85.40
21298;DHT22;10808;48.010;11.326;2023-07-31T10:46:28;26.80;86.80
21298;DHT22;10808;48.010;11.326;2023-07-31T10:49:00;26.70;86.60
21298;DHT22;10808;48.010;11.326;2023-07-31T10:51:35;26.50;86.60
21298;DHT22;10808;48.010;11.326;2023-07-31T10:54:15;26.40;87.10
21298;DHT22;10808;48.010;11.326;2023-07-31T10:56:46;26.30;86.70
21298;DHT22;10808;48.010;11.326;2023-07-31T10:59:17;26.30;87.30
21298;DHT22;10808;48.010;11.326;2023-07-31T11:01:55;26.50;87.80
21298;DHT22;10808;48.010;11.326;2023-07-31T11:04:28;26.50;85.50
21298;DHT22;10808;48.010;11.326;2023-07-31T11:06:59;26.30;85.30
21298;DHT22;10808;48.010;11.326;2023-07-31T11:09:30;26.30;87.00
21298;DHT22;10808;48.010;11.326;2023-07-31T11:11:57;26.30;86.30
21298;DHT22;10808;48.010;11.326;2023-07-31T11:14:24;26.20;85.70
21298;DHT22;10808;48.010;11.326;2023-07-31T11:16:52;26.40;85.50
21298;DHT22;10808;48.010;11.326;2023-07-31T11:19:25;26.30;85.90
21298;DHT22;10808;48.010;11.326;2023-07-31T11:21:52;26.40;85.60
21298;DHT22;10808;48.010;11.326;2023-07-31T11:24:38;26.40;83.70
21298;DHT22;10808;48.010;11.326;2023-07-31T11:27:07;26.50;83.20
21298;DHT22;10808;48.010;11.326;2023-07-31T11:29:33;26.50;83.70
21298;DHT22;10808;48.010;11.326;2023-07-31T11:31:59;26.80;83.80
21298;DHT22;10808;48.010;11.326;2023-07-31T11:34:25;27.10;84.60
21298;DHT22;10808;48.010;11.326;2023-07-31T11:36:58;27.40;82.40
21298;DHT22;10808;48.010;11.326;2023-07-31T11:39:24;27.50;81.00
21298;DHT22;10808;48.010;11.326;2023-07-31T11:41:50;27.40;81.40
21298;DHT22;10808;48.010;11.326;2023-07-31T11:44:16;27.30;81.60
21298;DHT22;10808;48.010;11.326;2023-07-31T11:46:43;27.30;81.70
21298;DHT22;10808;48.010;11.326;2023-07-31T11:49:09;27.40;81.70
21298;DHT22;10808;48.010;11.326;2023-07-31T11:51:35;27.60;81.20
21298;DHT22;10808;48.010;11.326;2023-07-31T11:54:02;27.40;81.50
21298;DHT22;10808;48.010;11.326;2023-07-31T11:56:28;27.40;82.10
21298;DHT22;10808;48.010;11.326;2023-07-31T11:58:58;27.50;81.50
21298;DHT22;10808;48.010;11.326;2023-07-31T12:01:25;27.60;81.70
21298;DHT22;10808;48.010;11.326;2023-07-31T12:03:52;27.90;80.20
21298;DHT22;10808;48.010;11.326;2023-07-31T12:06:18;28.00;79.80
21298;DHT22;10808;48.010;11.326;2023-07-31T12:08:47;28.30;80.50
21298;DHT22;10808;48.010;11.326;2023-07-31T12:11:13;28.70;79.60
21298;DHT22;10808;48.010;11.326;2023-07-31T12:13:40;28.90;78.60
21298;DHT22;10808;48.010;11.326;2023-07-31T12:16:06;29.20;78.10
21298;DHT22;10808;48.010;11.326;2023-07-31T12:18:37;29.30;76.50
21298;DHT22;10808;48.010;11.326;2023-07-31T12:21:07;29.20;76.00
21298;DHT22;10808;48.010;11.326;2023-07-31T12:23:35;29.30;75.30
21298;DHT22;10808;48.010;11.326;2023-07-31T12:26:16;29.70;73.20
21298;DHT22;10808;48.010;11.326;2023-07-31T12:28:46;29.80;73.00
21298;DHT22;10808;48.010;11.326;2023-07-31T12:31:17;29.90;72.00
21298;DHT22;10808;48.010;11.326;2023-07-31T12:33:47;30.10;72.90
21298;DHT22;10808;48.010;11.326;2023-07-31T12:36:15;30.20;73.00
21298;DHT22;10808;48.010;11.326;2023-07-31T12:38:42;30.20;72.10
21298;DHT22;10808;48.010;11.326;2023-07-31T12:41:10;30.00;72.00
21298;DHT22;10808;48.010;11.326;2023-07-31T12:43:38;29.70;72.40
21298;DHT22;10808;48.010;11.326;2023-07-31T12:46:05;29.60;72.50
21298;DHT22;10808;48.010;11.326;2023-07-31T12:48:32;29.70;73.30
21298;DHT22;10808;48.010;11.326;2023-07-31T12:50:58;30.00;73.20
21298;DHT22;10808;48.010;11.326;2023-07-31T12:53:24;30.00;73.00
21298;DHT22;10808;48.010;11.326;2023-07-31T12:55:50;30.10;72.90
21298;DHT22;10808;48.010;11.326;2023-07-31T12:58:16;29.90;71.70
21298;DHT22;10808;48.010;11.326;2023-07-31T13:00:42;29.60;71.40
21298;DHT22;10808;48.010;11.326;2023-07-31T13:03:08;29.40;71.40
21298;DHT22;10808;48.010;11.326;2023-07-31T13:05:35;29.10;72.10
21298;DHT22;10808;48.010;11.326;2023-07-31T13:08:01;29.00;73.00
21298;DHT22;10808;48.010;11.326;2023-07-31T13:10:27;29.00;73.10
21298;DHT22;10808;48.010;11.326;2023-07-31T13:12:54;29.10;74.30
21298;DHT22;10808;48.010;11.326;2023-07-31T13:15:20;29.00;73.10
21298;DHT22;10808;48.010;11.326;2023-07-31T13:17:47;28.90;73.50
21298;DHT22;10808;48.010;11.326;2023-07-31T13:20:13;28.60;71.60
21298;DHT22;10808;48.010;11.326;2023-07-31T13:22:39;28.30;72.70
21298;DHT22;10808;48.010;11.326;2023-07-31T13:25:05;28.10;72.20
21298;DHT22;10808;48.010;11.326;2023-07-31T13:27:32;27.90;73.20
21298;DHT22;10808;48.010;11.326;2023-07-31T13:29:58;27.80;73.80
21298;DHT22;10808;48.010;11.326;2023-07-31T13:32:24;27.80;74.70
21298;DHT22;10808;48.010;11.326;2023-07-31T13:34:51;27.60;73.40
21298;DHT22;10808;48.010;11.326;2023-07-31T13:37:17;27.40;75.10
21298;DHT22;10808;48.010;11.326;2023-07-31T13:39:43;27.40;75.80
21298;DHT22;10808;48.010;11.326;2023-07-31T13:42:10;27.40;75.20
21298;DHT22;10808;48.010;11.326;2023-07-31T13:44:38;27.20;75.30
21298;DHT22;10808;48.010;11.326;2023-07-31T13:47:05;27.20;76.50
21298;DHT22;10808;48.010;11.326;2023-07-31T13:49:31;27.30;77.10
21298;DHT22;10808;48.010;11.326;2023-07-31T13:51:57;27.50;76.80
21298;DHT22;10808;48.010;11.326;2023-07-31T13:54:24;27.80;76.50
21298;DHT22;10808;48.010;11.326;2023-07-31T13:56:50;27.90;72.80
21298;DHT22;10808;48.010;11.326;2023-07-31T13:59:16;27.70;71.70
21298;DHT22;10808;48.010;11.326;2023-07-31T14:01:43;27.60;71.80
21298;DHT22;10808;48.010;11.326;2023-07-31T14:04:15;27.50;73.30
21298;DHT22;10808;48.010;11.326;2023-07-31T14:06:41;27.50;73.80
21298;DHT22;10808;48.010;11.326;2023-07-31T14:09:07;27.50;74.50
21298;DHT22;10808;48.010;11.326;2023-07-31T14:11:34;27.40;73.70
21298;DHT22;10808;48.010;11.326;2023-07-31T14:14:00;27.20;75.20
21298;DHT22;10808;48.010;11.326;2023-07-31T14:16:28;27.20;75.30
21298;DHT22;10808;48.010;11.326;2023-07-31T14:18:54;27.10;75.50
21298;DHT22;10808;48.010;11.326;2023-07-31T14:21:20;27.20;75.80
21298;DHT22;10808;48.010;11.326;2023-07-31T14:23:46;27.20;76.50
21298;DHT22;10808;48.010;11.326;2023-07-31T14:26:12;26.90;76.30
21298;DHT22;10808;48.010;11.326;2023-07-31T14:28:38;27.00;77.50
21298;DHT22;10808;48.010;11.326;2023-07-31T14:31:04;27.20;77.60
21298;DHT22;10808;48.010;11.326;2023-07-31T14:33:32;27.40;76.20
21298;DHT22;10808;48.010;11.326;2023-07-31T14:35:58;27.70;76.40
21298;DHT22;10808;48.010;11.326;2023-07-31T14:38:25;28.00;76.20
21298;DHT22;10808;48.010;11.326;2023-07-31T14:40:51;28.20;74.20
21298;DHT22;10808;48.010;11.326;2023-07-31T14:43:17;28.30;73.50
21298;DHT22;10808;48.010;11.326;2023-07-31T14:45:43;28.20;74.10
21298;DHT22;10808;48.010;11.326;2023-07-31T14:48:09;28.40;73.90
21298;DHT22;10808;48.010;11.326;2023-07-31T14:50:35;28.40;73.00
21298;DHT22;10808;48.010;11.326;2023-07-31T14:53:01;28.50;73.00
21298;DHT22;10808;48.010;11.326;2023-07-31T14:55:27;28.60;72.40
21298;DHT22;10808;48.010;11.326;2023-07-31T14:57:53;28.70;72.80
21298;DHT22;10808;48.010;11.326;2023-07-31T15:00:19;28.70;72.90
21298;DHT22;10808;48.010;11.326;2023-07-31T15:02:45;28.60;72.60
21298;DHT22;10808;48.010;11.326;2023-07-31T15:05:11;28.50;73.10
21298;DHT22;10808;48.010;11.326;2023-07-31T15:07:37;28.30;72.10
21298;DHT22;10808;48.010;11.326;2023-07-31T15:10:04;28.10;72.70
21298;DHT22;10808;48.010;11.326;2023-07-31T15:12:31;27.90;74.10
21298;DHT22;10808;48.010;11.326;2023-07-31T15:14:57;27.80;74.00
21298;DHT22;10808;48.010;11.326;2023-07-31T15:17:23;27.70;75.10
21298;DHT22;10808;48.010;11.326;2023-07-31T15:19:50;27.60;73.90